sensor_id;sensor_type;location;lat;lon;timestamp;P1;durP1;ratioP1;P2;durP2;ratioP2
46022;SDS011;31756;47.936;16.224;2023-03-04T00:00:56;414.10;;;134.70;;
46022;SDS011;31756;47.936;16.224;2023-03-04T00:03:22;410.90;;;130.13;;
46022;SDS011;31756;47.936;16.224;2023-03-04T00:05:47;408.60;;;133.50;;
46022;SDS011;31756;47.936;16.224;2023-03-04T00:08:13;413.40;;;137.13;;
46022;SDS011;31756;47.936;16.224;2023-03-04T00:10:39;416.00;;;136.73;;
46022;SDS011;31756;47.936;16.224;2023-03-04T00:13:04;412.17;;;130.87;;
46022;SDS011;31756;47.936;16.224;2023-03-04T00:15:30;413.33;;;134.53;;
46022;SDS011;31756;47.936;16.224;2023-03-04T00:17:56;413.60;;;133.37;;
46022;SDS011;31756;47.936;16.224;2023-03-04T00:20:22;411.77;;;127.50;;
46022;SDS011;31756;47.936;16.224;2023-03-04T00:22:47;408.70;;;129.57;;
46022;SDS011;31756;47.936;16.224;2023-03-04T00:25:13;412.97;;;128.93;;
46022;SDS011;31756;47.936;16.224;2023-03-04T00:27:39;413.90;;;130.37;;
46022;SDS011;31756;47.936;16.224;2023-03-04T00:30:05;411.80;;;129.87;;
46022;SDS011;31756;47.936;16.224;2023-03-04T00:32:31;412.00;;;127.93;;
46022;SDS011;31756;47.936;16.224;2023-03-04T00:34:57;412.67;;;133.67;;
46022;SDS011;31756;47.936;16.224;2023-03-04T00:37:23;413.37;;;132.43;;
46022;SDS011;31756;47.936;16.224;2023-03-04T00:39:49;416.40;;;129.80;;
46022;SDS011;31756;47.936;16.224;2023-03-04T00:42:14;416.43;;;129.17;;
46022;SDS011;31756;47.936;16.224;2023-03-04T00:44:40;414.13;;;130.23;;
46022;SDS011;31756;47.936;16.224;2023-03-04T00:47:06;414.47;;;127.50;;
46022;SDS011;31756;47.936;16.224;2023-03-04T00:49:31;411.77;;;126.30;;
46022;SDS011;31756;47.936;16.224;2023-03-04T00:51:57;417.20;;;134.70;;
46022;SDS011;31756;47.936;16.224;2023-03-04T00:54:23;412.53;;;128.73;;
46022;SDS011;31756;47.936;16.224;2023-03-04T00:56:49;415.70;;;130.37;;
46022;SDS011;31756;47.936;16.224;2023-03-04T00:59:14;414.10;;;127.60;;
46022;SDS011;31756;47.936;16.224;2023-03-04T01:01:40;412.53;;;127.40;;
46022;SDS011;31756;47.936;16.224;2023-03-04T01:04:06;414.80;;;127.07;;
46022;SDS011;31756;47.936;16.224;2023-03-04T01:06:31;411.87;;;127.70;;
46022;SDS011;31756;47.936;16.224;2023-03-04T01:08:57;413.37;;;125.20;;
46022;SDS011;31756;47.936;16.224;2023-03-04T01:11:22;418.80;;;133.77;;
46022;SDS011;31756;47.936;16.224;2023-03-04T01:13:48;418.47;;;135.03;;
46022;SDS011;31756;47.936;16.224;2023-03-04T01:16:14;415.17;;;132.00;;
46022;SDS011;31756;47.936;16.224;2023-03-04T01:18:40;419.80;;;128.30;;
46022;SDS011;31756;47.936;16.224;2023-03-04T01:21:07;421.57;;;133.40;;
46022;SDS011;31756;47.936;16.224;2023-03-04T01:23:32;415.33;;;131.47;;
46022;SDS011;31756;47.936;16.224;2023-03-04T01:26:00;418.00;;;128.27;;
46022;SDS011;31756;47.936;16.224;2023-03-04T01:28:26;417.30;;;130.13;;
46022;SDS011;31756;47.936;16.224;2023-03-04T01:30:51;417.83;;;130.57;;
46022;SDS011;31756;47.936;16.224;2023-03-04T01:33:17;419.10;;;129.30;;
46022;SDS011;31756;47.936;16.224;2023-03-04T01:35:42;410.60;;;124.97;;
46022;SDS011;31756;47.936;16.224;2023-03-04T01:38:08;412.43;;;127.87;;
46022;SDS011;31756;47.936;16.224;2023-03-04T01:40:34;412.00;;;124.70;;
46022;SDS011;31756;47.936;16.224;2023-03-04T01:42:59;415.87;;;125.73;;
46022;SDS011;31756;47.936;16.224;2023-03-04T01:45:25;409.17;;;127.07;;
46022;SDS011;31756;47.936;16.224;2023-03-04T01:47:51;413.17;;;127.00;;
46022;SDS011;31756;47.936;16.224;2023-03-04T01:52:55;410.00;;;123.53;;
46022;SDS011;31756;47.936;16.224;2023-03-04T01:55:21;410.90;;;125.67;;
46022;SDS011;31756;47.936;16.224;2023-03-04T01:57:48;409.63;;;128.27;;
46022;SDS011;31756;47.936;16.224;2023-03-04T02:00:25;410.77;;;126.47;;
46022;SDS011;31756;47.936;16.224;2023-03-04T02:03:05;408.53;;;123.47;;
46022;SDS011;31756;47.936;16.224;2023-03-04T02:05:36;415.67;;;123.87;;
46022;SDS011;31756;47.936;16.224;2023-03-04T02:08:04;417.07;;;128.17;;
46022;SDS011;31756;47.936;16.224;2023-03-04T02:10:30;412.30;;;122.77;;
46022;SDS011;31756;47.936;16.224;2023-03-04T02:12:56;416.57;;;126.77;;
46022;SDS011;31756;47.936;16.224;2023-03-04T02:15:24;411.83;;;121.70;;
46022;SDS011;31756;47.936;16.224;2023-03-04T02:17:50;412.60;;;122.33;;
46022;SDS011;31756;47.936;16.224;2023-03-04T02:20:20;414.00;;;119.73;;
46022;SDS011;31756;47.936;16.224;2023-03-04T02:22:53;411.33;;;119.93;;
46022;SDS011;31756;47.936;16.224;2023-03-04T02:25:32;418.97;;;122.83;;
46022;SDS011;31756;47.936;16.224;2023-03-04T02:28:04;410.50;;;120.77;;
46022;SDS011;31756;47.936;16.224;2023-03-04T02:30:29;413.17;;;124.67;;
46022;SDS011;31756;47.936;16.224;2023-03-04T02:32:55;414.73;;;120.17;;
46022;SDS011;31756;47.936;16.224;2023-03-04T02:35:21;418.77;;;126.10;;
46022;SDS011;31756;47.936;16.224;2023-03-04T02:37:47;411.63;;;119.63;;
46022;SDS011;31756;47.936;16.224;2023-03-04T02:40:20;411.90;;;123.33;;
46022;SDS011;31756;47.936;16.224;2023-03-04T02:42:49;411.07;;;123.23;;
46022;SDS011;31756;47.936;16.224;2023-03-04T02:48:20;408.20;;;120.70;;
46022;SDS011;31756;47.936;16.224;2023-03-04T02:50:49;409.70;;;121.37;;
46022;SDS011;31756;47.936;16.224;2023-03-04T02:53:16;414.20;;;123.63;;
46022;SDS011;31756;47.936;16.224;2023-03-04T02:55:42;412.17;;;119.57;;
46022;SDS011;31756;47.936;16.224;2023-03-04T02:58:10;406.27;;;118.40;;
46022;SDS011;31756;47.936;16.224;2023-03-04T03:00:36;412.50;;;121.13;;
46022;SDS011;31756;47.936;16.224;2023-03-04T03:03:03;407.17;;;119.13;;
46022;SDS011;31756;47.936;16.224;2023-03-04T03:05:30;411.57;;;120.80;;
46022;SDS011;31756;47.936;16.224;2023-03-04T03:07:57;404.53;;;120.03;;
46022;SDS011;31756;47.936;16.224;2023-03-04T03:10:23;401.73;;;117.37;;
46022;SDS011;31756;47.936;16.224;2023-03-04T03:12:49;418.37;;;127.20;;
46022;SDS011;31756;47.936;16.224;2023-03-04T03:15:14;405.40;;;121.17;;
46022;SDS011;31756;47.936;16.224;2023-03-04T03:17:41;405.30;;;116.83;;
46022;SDS011;31756;47.936;16.224;2023-03-04T03:20:07;406.13;;;119.90;;
46022;SDS011;31756;47.936;16.224;2023-03-04T03:22:35;411.97;;;121.70;;
46022;SDS011;31756;47.936;16.224;2023-03-04T03:25:01;409.77;;;117.07;;
46022;SDS011;31756;47.936;16.224;2023-03-04T03:27:26;407.97;;;114.97;;
46022;SDS011;31756;47.936;16.224;2023-03-04T03:29:52;409.03;;;120.30;;
46022;SDS011;31756;47.936;16.224;2023-03-04T03:32:18;404.83;;;117.27;;
46022;SDS011;31756;47.936;16.224;2023-03-04T03:34:44;415.13;;;123.43;;
46022;SDS011;31756;47.936;16.224;2023-03-04T03:37:09;403.80;;;119.83;;
46022;SDS011;31756;47.936;16.224;2023-03-04T03:39:35;408.40;;;121.93;;
46022;SDS011;31756;47.936;16.224;2023-03-04T03:42:01;409.43;;;117.33;;
46022;SDS011;31756;47.936;16.224;2023-03-04T03:44:27;409.27;;;118.03;;
46022;SDS011;31756;47.936;16.224;2023-03-04T03:46:52;408.73;;;118.17;;
46022;SDS011;31756;47.936;16.224;2023-03-04T03:49:18;407.43;;;121.23;;
46022;SDS011;31756;47.936;16.224;2023-03-04T03:51:44;408.40;;;118.97;;
46022;SDS011;31756;47.936;16.224;2023-03-04T03:54:09;406.37;;;117.63;;
46022;SDS011;31756;47.936;16.224;2023-03-04T03:56:35;404.53;;;115.93;;
46022;SDS011;31756;47.936;16.224;2023-03-04T03:59:01;403.63;;;116.70;;
46022;SDS011;31756;47.936;16.224;2023-03-04T04:01:26;401.27;;;119.40;;
46022;SDS011;31756;47.936;16.224;2023-03-04T04:03:52;404.00;;;117.23;;
46022;SDS011;31756;47.936;16.224;2023-03-04T04:06:18;406.87;;;118.20;;
46022;SDS011;31756;47.936;16.224;2023-03-04T04:08:44;403.43;;;116.47;;
46022;SDS011;31756;47.936;16.224;2023-03-04T04:11:10;405.03;;;117.17;;
46022;SDS011;31756;47.936;16.224;2023-03-04T04:13:37;411.53;;;120.70;;
46022;SDS011;31756;47.936;16.224;2023-03-04T04:16:03;412.63;;;118.60;;
46022;SDS011;31756;47.936;16.224;2023-03-04T04:18:29;406.07;;;119.97;;
46022;SDS011;31756;47.936;16.224;2023-03-04T04:20:55;414.40;;;120.23;;
46022;SDS011;31756;47.936;16.224;2023-03-04T04:23:20;403.20;;;117.00;;
46022;SDS011;31756;47.936;16.224;2023-03-04T04:25:46;407.90;;;121.77;;
46022;SDS011;31756;47.936;16.224;2023-03-04T04:28:12;401.63;;;119.17;;
46022;SDS011;31756;47.936;16.224;2023-03-04T04:30:37;402.80;;;118.37;;
46022;SDS011;31756;47.936;16.224;2023-03-04T04:33:03;408.63;;;121.67;;
46022;SDS011;31756;47.936;16.224;2023-03-04T04:35:30;409.17;;;120.40;;
46022;SDS011;31756;47.936;16.224;2023-03-04T04:37:57;413.37;;;121.83;;
46022;SDS011;31756;47.936;16.224;2023-03-04T04:40:23;408.43;;;120.70;;
46022;SDS011;31756;47.936;16.224;2023-03-04T04:42:48;406.60;;;120.27;;
46022;SDS011;31756;47.936;16.224;2023-03-04T04:45:14;409.37;;;120.97;;
46022;SDS011;31756;47.936;16.224;2023-03-04T04:47:40;411.17;;;124.37;;
46022;SDS011;31756;47.936;16.224;2023-03-04T04:50:06;407.80;;;119.73;;
46022;SDS011;31756;47.936;16.224;2023-03-04T04:52:32;413.50;;;123.30;;
46022;SDS011;31756;47.936;16.224;2023-03-04T04:54:58;407.40;;;121.67;;
46022;SDS011;31756;47.936;16.224;2023-03-04T04:57:23;413.07;;;122.40;;
46022;SDS011;31756;47.936;16.224;2023-03-04T04:59:49;410.40;;;121.07;;
46022;SDS011;31756;47.936;16.224;2023-03-04T05:02:15;405.47;;;118.30;;
46022;SDS011;31756;47.936;16.224;2023-03-04T05:04:40;410.10;;;125.40;;
46022;SDS011;31756;47.936;16.224;2023-03-04T05:07:06;407.27;;;120.10;;
46022;SDS011;31756;47.936;16.224;2023-03-04T05:09:32;408.77;;;119.43;;
46022;SDS011;31756;47.936;16.224;2023-03-04T05:11:57;410.50;;;119.13;;
46022;SDS011;31756;47.936;16.224;2023-03-04T05:14:23;410.50;;;119.33;;
46022;SDS011;31756;47.936;16.224;2023-03-04T05:16:49;409.50;;;120.57;;
46022;SDS011;31756;47.936;16.224;2023-03-04T05:19:17;404.50;;;117.53;;
46022;SDS011;31756;47.936;16.224;2023-03-04T05:21:43;411.90;;;124.80;;
46022;SDS011;31756;47.936;16.224;2023-03-04T05:24:09;409.73;;;123.23;;
46022;SDS011;31756;47.936;16.224;2023-03-04T05:26:35;411.53;;;121.33;;
46022;SDS011;31756;47.936;16.224;2023-03-04T05:29:01;415.40;;;125.67;;
46022;SDS011;31756;47.936;16.224;2023-03-04T05:31:27;413.77;;;121.73;;
46022;SDS011;31756;47.936;16.224;2023-03-04T05:33:53;413.87;;;122.23;;
46022;SDS011;31756;47.936;16.224;2023-03-04T05:36:19;412.30;;;121.60;;
46022;SDS011;31756;47.936;16.224;2023-03-04T05:38:44;420.40;;;125.67;;
46022;SDS011;31756;47.936;16.224;2023-03-04T05:41:10;420.53;;;125.40;;
46022;SDS011;31756;47.936;16.224;2023-03-04T05:43:36;421.53;;;131.60;;
46022;SDS011;31756;47.936;16.224;2023-03-04T05:46:06;418.17;;;127.47;;
46022;SDS011;31756;47.936;16.224;2023-03-04T05:48:33;415.60;;;123.17;;
46022;SDS011;31756;47.936;16.224;2023-03-04T05:50:59;411.60;;;121.17;;
46022;SDS011;31756;47.936;16.224;2023-03-04T05:53:26;413.33;;;122.00;;
46022;SDS011;31756;47.936;16.224;2023-03-04T05:55:53;411.30;;;123.03;;
46022;SDS011;31756;47.936;16.224;2023-03-04T05:58:19;410.50;;;122.60;;
46022;SDS011;31756;47.936;16.224;2023-03-04T06:00:45;417.33;;;124.20;;
46022;SDS011;31756;47.936;16.224;2023-03-04T06:03:15;414.20;;;121.80;;
46022;SDS011;31756;47.936;16.224;2023-03-04T06:05:43;417.33;;;124.33;;
46022;SDS011;31756;47.936;16.224;2023-03-04T06:08:09;409.97;;;121.13;;
46022;SDS011;31756;47.936;16.224;2023-03-04T06:10:35;410.77;;;123.20;;
46022;SDS011;31756;47.936;16.224;2023-03-04T06:13:02;411.33;;;125.37;;
46022;SDS011;31756;47.936;16.224;2023-03-04T06:15:28;416.43;;;123.50;;
46022;SDS011;31756;47.936;16.224;2023-03-04T06:17:54;416.83;;;137.37;;
46022;SDS011;31756;47.936;16.224;2023-03-04T06:20:19;410.77;;;124.07;;
46022;SDS011;31756;47.936;16.224;2023-03-04T06:22:45;418.40;;;151.63;;
46022;SDS011;31756;47.936;16.224;2023-03-04T06:25:11;415.37;;;126.33;;
46022;SDS011;31756;47.936;16.224;2023-03-04T06:27:36;418.23;;;128.83;;
46022;SDS011;31756;47.936;16.224;2023-03-04T06:30:02;421.27;;;132.93;;
46022;SDS011;31756;47.936;16.224;2023-03-04T06:32:28;422.07;;;131.43;;
46022;SDS011;31756;47.936;16.224;2023-03-04T06:34:55;418.43;;;139.60;;
46022;SDS011;31756;47.936;16.224;2023-03-04T06:37:21;420.17;;;126.03;;
46022;SDS011;31756;47.936;16.224;2023-03-04T06:39:46;417.87;;;126.43;;
46022;SDS011;31756;47.936;16.224;2023-03-04T06:42:12;421.50;;;133.00;;
46022;SDS011;31756;47.936;16.224;2023-03-04T06:44:37;416.30;;;132.80;;
46022;SDS011;31756;47.936;16.224;2023-03-04T06:47:03;421.50;;;129.40;;
46022;SDS011;31756;47.936;16.224;2023-03-04T06:49:29;426.20;;;133.80;;
46022;SDS011;31756;47.936;16.224;2023-03-04T06:51:55;417.23;;;133.23;;
46022;SDS011;31756;47.936;16.224;2023-03-04T06:54:21;418.87;;;133.07;;
46022;SDS011;31756;47.936;16.224;2023-03-04T06:56:46;423.33;;;133.67;;
46022;SDS011;31756;47.936;16.224;2023-03-04T06:59:12;424.60;;;136.87;;
46022;SDS011;31756;47.936;16.224;2023-03-04T07:01:38;423.30;;;140.00;;
46022;SDS011;31756;47.936;16.224;2023-03-04T07:04:03;425.13;;;140.00;;
46022;SDS011;31756;47.936;16.224;2023-03-04T07:06:29;425.00;;;138.70;;
46022;SDS011;31756;47.936;16.224;2023-03-04T07:08:55;434.33;;;140.70;;
46022;SDS011;31756;47.936;16.224;2023-03-04T07:11:22;428.53;;;144.90;;
46022;SDS011;31756;47.936;16.224;2023-03-04T07:13:48;432.10;;;149.03;;
46022;SDS011;31756;47.936;16.224;2023-03-04T07:16:17;434.23;;;149.30;;
46022;SDS011;31756;47.936;16.224;2023-03-04T07:18:45;426.67;;;146.10;;
46022;SDS011;31756;47.936;16.224;2023-03-04T07:21:11;439.33;;;152.50;;
46022;SDS011;31756;47.936;16.224;2023-03-04T07:23:38;438.10;;;152.20;;
46022;SDS011;31756;47.936;16.224;2023-03-04T07:26:04;430.63;;;148.53;;
46022;SDS011;31756;47.936;16.224;2023-03-04T07:28:30;432.87;;;150.90;;
46022;SDS011;31756;47.936;16.224;2023-03-04T07:30:56;435.43;;;155.40;;
46022;SDS011;31756;47.936;16.224;2023-03-04T07:33:22;436.30;;;157.90;;
46022;SDS011;31756;47.936;16.224;2023-03-04T07:35:47;444.50;;;172.30;;
46022;SDS011;31756;47.936;16.224;2023-03-04T07:38:13;446.23;;;178.17;;
46022;SDS011;31756;47.936;16.224;2023-03-04T07:40:39;446.03;;;176.13;;
46022;SDS011;31756;47.936;16.224;2023-03-04T07:43:05;447.10;;;182.73;;
46022;SDS011;31756;47.936;16.224;2023-03-04T07:45:30;455.50;;;201.50;;
46022;SDS011;31756;47.936;16.224;2023-03-04T07:47:59;458.33;;;204.07;;
46022;SDS011;31756;47.936;16.224;2023-03-04T07:50:25;457.60;;;209.43;;
46022;SDS011;31756;47.936;16.224;2023-03-04T07:52:50;462.50;;;223.90;;
46022;SDS011;31756;47.936;16.224;2023-03-04T07:55:16;454.77;;;218.80;;
46022;SDS011;31756;47.936;16.224;2023-03-04T07:57:42;464.57;;;240.20;;
46022;SDS011;31756;47.936;16.224;2023-03-04T08:00:10;460.90;;;246.17;;
46022;SDS011;31756;47.936;16.224;2023-03-04T08:02:38;464.30;;;240.83;;
46022;SDS011;31756;47.936;16.224;2023-03-04T08:05:05;466.70;;;244.90;;
46022;SDS011;31756;47.936;16.224;2023-03-04T08:07:31;463.10;;;246.67;;
46022;SDS011;31756;47.936;16.224;2023-03-04T08:09:57;451.53;;;233.13;;
46022;SDS011;31756;47.936;16.224;2023-03-04T08:12:23;474.13;;;268.93;;
46022;SDS011;31756;47.936;16.224;2023-03-04T08:14:49;480.90;;;272.30;;
46022;SDS011;31756;47.936;16.224;2023-03-04T08:17:16;476.33;;;274.97;;
46022;SDS011;31756;47.936;16.224;2023-03-04T08:19:42;482.30;;;289.03;;
46022;SDS011;31756;47.936;16.224;2023-03-04T08:22:07;485.97;;;292.30;;
46022;SDS011;31756;47.936;16.224;2023-03-04T08:24:33;477.87;;;284.07;;
46022;SDS011;31756;47.936;16.224;2023-03-04T08:26:59;478.57;;;278.70;;
46022;SDS011;31756;47.936;16.224;2023-03-04T08:29:24;470.37;;;275.30;;
46022;SDS011;31756;47.936;16.224;2023-03-04T08:31:51;475.23;;;282.07;;
46022;SDS011;31756;47.936;16.224;2023-03-04T08:34:19;480.93;;;295.17;;
46022;SDS011;31756;47.936;16.224;2023-03-04T08:36:46;486.67;;;307.67;;
46022;SDS011;31756;47.936;16.224;2023-03-04T08:39:12;476.40;;;293.53;;
46022;SDS011;31756;47.936;16.224;2023-03-04T08:41:40;481.30;;;301.07;;
46022;SDS011;31756;47.936;16.224;2023-03-04T08:44:06;482.93;;;310.33;;
46022;SDS011;31756;47.936;16.224;2023-03-04T08:46:34;480.50;;;311.23;;
46022;SDS011;31756;47.936;16.224;2023-03-04T08:49:01;485.37;;;315.67;;
46022;SDS011;31756;47.936;16.224;2023-03-04T08:51:26;486.70;;;317.53;;
46022;SDS011;31756;47.936;16.224;2023-03-04T08:53:52;484.73;;;321.03;;
46022;SDS011;31756;47.936;16.224;2023-03-04T08:56:18;488.20;;;322.77;;
46022;SDS011;31756;47.936;16.224;2023-03-04T08:58:44;489.53;;;330.07;;
46022;SDS011;31756;47.936;16.224;2023-03-04T09:01:10;488.13;;;331.90;;
46022;SDS011;31756;47.936;16.224;2023-03-04T09:03:37;490.53;;;331.63;;
46022;SDS011;31756;47.936;16.224;2023-03-04T09:06:03;484.50;;;324.67;;
46022;SDS011;31756;47.936;16.224;2023-03-04T09:08:30;489.70;;;340.90;;
46022;SDS011;31756;47.936;16.224;2023-03-04T09:10:57;485.47;;;337.93;;
46022;SDS011;31756;47.936;16.224;2023-03-04T09:13:23;494.60;;;350.10;;
46022;SDS011;31756;47.936;16.224;2023-03-04T09:15:49;488.07;;;341.13;;
46022;SDS011;31756;47.936;16.224;2023-03-04T09:18:17;489.23;;;340.20;;
46022;SDS011;31756;47.936;16.224;2023-03-04T09:20:44;488.77;;;340.27;;
46022;SDS011;31756;47.936;16.224;2023-03-04T09:23:10;487.53;;;345.07;;
46022;SDS011;31756;47.936;16.224;2023-03-04T09:25:36;488.33;;;338.73;;
46022;SDS011;31756;47.936;16.224;2023-03-04T09:28:02;485.30;;;340.10;;
46022;SDS011;31756;47.936;16.224;2023-03-04T09:30:29;484.40;;;334.37;;
46022;SDS011;31756;47.936;16.224;2023-03-04T09:32:55;486.97;;;338.23;;
46022;SDS011;31756;47.936;16.224;2023-03-04T09:35:21;481.97;;;331.73;;
46022;SDS011;31756;47.936;16.224;2023-03-04T09:37:47;486.07;;;345.20;;
46022;SDS011;31756;47.936;16.224;2023-03-04T09:40:21;476.93;;;319.23;;
46022;SDS011;31756;47.936;16.224;2023-03-04T09:45:21;469.70;;;296.70;;
46022;SDS011;31756;47.936;16.224;2023-03-04T09:47:51;468.80;;;309.77;;
46022;SDS011;31756;47.936;16.224;2023-03-04T09:50:18;464.23;;;304.03;;
46022;SDS011;31756;47.936;16.224;2023-03-04T09:53:01;442.37;;;267.30;;
46022;SDS011;31756;47.936;16.224;2023-03-04T09:55:50;437.40;;;228.93;;
46022;SDS011;31756;47.936;16.224;2023-03-04T09:58:25;399.17;;;190.60;;
46022;SDS011;31756;47.936;16.224;2023-03-04T10:01:04;404.63;;;191.00;;
46022;SDS011;31756;47.936;16.224;2023-03-04T10:06:15;398.50;;;189.57;;
46022;SDS011;31756;47.936;16.224;2023-03-04T10:11:44;394.70;;;189.07;;
46022;SDS011;31756;47.936;16.224;2023-03-04T10:19:57;380.77;;;172.20;;
46022;SDS011;31756;47.936;16.224;2023-03-04T10:22:36;382.13;;;176.38;;
46022;SDS011;31756;47.936;16.224;2023-03-04T10:25:13;381.13;;;182.37;;
46022;SDS011;31756;47.936;16.224;2023-03-04T10:27:47;282.20;;;142.53;;
46022;SDS011;31756;47.936;16.224;2023-03-04T10:33:15;390.63;;;191.83;;
46022;SDS011;31756;47.936;16.224;2023-03-04T10:35:44;373.08;;;177.13;;
46022;SDS011;31756;47.936;16.224;2023-03-04T10:38:29;282.38;;;140.38;;
46022;SDS011;31756;47.936;16.224;2023-03-04T10:41:00;383.53;;;188.03;;
46022;SDS011;31756;47.936;16.224;2023-03-04T10:43:26;376.63;;;181.50;;
46022;SDS011;31756;47.936;16.224;2023-03-04T10:46:01;390.13;;;189.63;;
46022;SDS011;31756;47.936;16.224;2023-03-04T10:50:58;274.37;;;132.97;;
46022;SDS011;31756;47.936;16.224;2023-03-04T10:53:43;31.07;;;28.07;;
46022;SDS011;31756;47.936;16.224;2023-03-04T10:59:42;37.20;;;34.17;;
46022;SDS011;31756;47.936;16.224;2023-03-04T11:05:45;29.60;;;27.47;;
46022;SDS011;31756;47.936;16.224;2023-03-04T11:07:48;36.97;;;33.65;;
46022;SDS011;31756;47.936;16.224;2023-03-04T11:10:23;39.60;;;33.20;;
46022;SDS011;31756;47.936;16.224;2023-03-04T11:21:04;167.70;;;85.87;;
46022;SDS011;31756;47.936;16.224;2023-03-04T11:26:03;234.70;;;194.87;;
46022;SDS011;31756;47.936;16.224;2023-03-04T11:28:51;42.63;;;38.70;;
46022;SDS011;31756;47.936;16.224;2023-03-04T11:31:22;90.00;;;82.80;;
46022;SDS011;31756;47.936;16.224;2023-03-04T11:33:55;30.83;;;17.35;;
46022;SDS011;31756;47.936;16.224;2023-03-04T11:39:33;27.05;;;16.80;;
46022;SDS011;31756;47.936;16.224;2023-03-04T12:56:24;23.33;;;12.75;;
46022;SDS011;31756;47.936;16.224;2023-03-04T12:58:52;22.48;;;13.57;;
46022;SDS011;31756;47.936;16.224;2023-03-04T13:01:24;25.23;;;14.55;;
46022;SDS011;31756;47.936;16.224;2023-03-04T13:07:03;26.60;;;15.75;;
46022;SDS011;31756;47.936;16.224;2023-03-04T13:09:44;24.58;;;16.33;;
46022;SDS011;31756;47.936;16.224;2023-03-04T13:12:14;22.20;;;12.88;;
46022;SDS011;31756;47.936;16.224;2023-03-04T13:14:40;24.30;;;14.73;;
46022;SDS011;31756;47.936;16.224;2023-03-04T13:20:10;23.73;;;13.43;;
46022;SDS011;31756;47.936;16.224;2023-03-04T13:43:56;400.47;;;236.73;;
46022;SDS011;31756;47.936;16.224;2023-03-04T13:46:27;412.37;;;230.50;;
46022;SDS011;31756;47.936;16.224;2023-03-04T13:51:26;25.58;;;14.95;;
46022;SDS011;31756;47.936;16.224;2023-03-04T13:56:42;449.13;;;296.93;;
46022;SDS011;31756;47.936;16.224;2023-03-04T13:59:13;449.90;;;340.73;;
46022;SDS011;31756;47.936;16.224;2023-03-04T14:05:21;337.90;;;213.20;;
46022;SDS011;31756;47.936;16.224;2023-03-04T14:07:28;335.87;;;225.77;;
46022;SDS011;31756;47.936;16.224;2023-03-04T14:10:03;483.03;;;351.93;;
46022;SDS011;31756;47.936;16.224;2023-03-04T14:12:30;480.80;;;342.70;;
46022;SDS011;31756;47.936;16.224;2023-03-04T14:14:59;465.30;;;338.17;;
46022;SDS011;31756;47.936;16.224;2023-03-04T14:17:30;481.60;;;336.40;;
46022;SDS011;31756;47.936;16.224;2023-03-04T14:19:58;21.33;;;12.57;;
46022;SDS011;31756;47.936;16.224;2023-03-04T14:22:29;23.85;;;13.68;;
46022;SDS011;31756;47.936;16.224;2023-03-04T14:27:26;387.87;;;184.50;;
46022;SDS011;31756;47.936;16.224;2023-03-04T14:29:56;426.53;;;223.10;;
46022;SDS011;31756;47.936;16.224;2023-03-04T14:32:23;458.70;;;285.77;;
46022;SDS011;31756;47.936;16.224;2023-03-04T14:34:50;429.10;;;258.63;;
46022;SDS011;31756;47.936;16.224;2023-03-04T14:37:21;383.37;;;184.77;;
46022;SDS011;31756;47.936;16.224;2023-03-04T14:39:51;423.80;;;234.67;;
46022;SDS011;31756;47.936;16.224;2023-03-04T14:42:23;404.47;;;206.50;;
46022;SDS011;31756;47.936;16.224;2023-03-04T14:44:55;343.40;;;161.20;;
46022;SDS011;31756;47.936;16.224;2023-03-04T14:50:03;351.27;;;168.02;;
46022;SDS011;31756;47.936;16.224;2023-03-04T14:57:27;32.57;;;30.10;;
46022;SDS011;31756;47.936;16.224;2023-03-04T15:00:13;28.27;;;25.97;;
46022;SDS011;31756;47.936;16.224;2023-03-04T15:02:59;33.38;;;30.67;;
46022;SDS011;31756;47.936;16.224;2023-03-04T15:05:32;26.83;;;25.03;;
46022;SDS011;31756;47.936;16.224;2023-03-04T15:08:00;309.50;;;172.70;;
46022;SDS011;31756;47.936;16.224;2023-03-04T15:10:30;354.33;;;235.77;;
46022;SDS011;31756;47.936;16.224;2023-03-04T15:12:59;24.93;;;22.90;;
46022;SDS011;31756;47.936;16.224;2023-03-04T15:15:35;24.93;;;22.83;;
46022;SDS011;31756;47.936;16.224;2023-03-04T15:18:03;27.30;;;24.57;;
46022;SDS011;31756;47.936;16.224;2023-03-04T15:20:39;24.93;;;22.80;;
46022;SDS011;31756;47.936;16.224;2023-03-04T15:23:05;44.77;;;40.87;;
46022;SDS011;31756;47.936;16.224;2023-03-04T15:25:32;28.08;;;25.92;;
46022;SDS011;31756;47.936;16.224;2023-03-04T15:28:01;28.90;;;26.20;;
46022;SDS011;31756;47.936;16.224;2023-03-04T15:30:31;19.33;;;17.80;;
46022;SDS011;31756;47.936;16.224;2023-03-04T15:32:58;19.37;;;17.67;;
46022;SDS011;31756;47.936;16.224;2023-03-04T15:35:29;19.33;;;17.70;;
46022;SDS011;31756;47.936;16.224;2023-03-04T15:37:57;19.27;;;17.67;;
46022;SDS011;31756;47.936;16.224;2023-03-04T15:40:26;19.83;;;18.53;;
46022;SDS011;31756;47.936;16.224;2023-03-04T15:42:57;14.77;;;13.77;;
46022;SDS011;31756;47.936;16.224;2023-03-04T15:45:28;33.90;;;15.93;;
46022;SDS011;31756;47.936;16.224;2023-03-04T15:47:56;37.00;;;14.20;;
46022;SDS011;31756;47.936;16.224;2023-03-04T15:50:26;11.90;;;10.63;;
46022;SDS011;31756;47.936;16.224;2023-03-04T15:52:58;77.73;;;32.17;;
46022;SDS011;31756;47.936;16.224;2023-03-04T15:55:26;21.10;;;10.80;;
46022;SDS011;31756;47.936;16.224;2023-03-04T15:57:54;56.90;;;26.80;;
46022;SDS011;31756;47.936;16.224;2023-03-04T16:00:21;64.63;;;23.27;;
46022;SDS011;31756;47.936;16.224;2023-03-04T16:02:48;100.67;;;39.07;;
46022;SDS011;31756;47.936;16.224;2023-03-04T16:05:14;98.17;;;37.47;;
46022;SDS011;31756;47.936;16.224;2023-03-04T16:07:44;126.37;;;48.20;;
46022;SDS011;31756;47.936;16.224;2023-03-04T16:10:16;127.10;;;48.60;;
46022;SDS011;31756;47.936;16.224;2023-03-04T16:12:49;131.57;;;49.47;;
46022;SDS011;31756;47.936;16.224;2023-03-04T16:15:16;128.00;;;49.43;;
46022;SDS011;31756;47.936;16.224;2023-03-04T16:17:47;127.43;;;49.37;;
46022;SDS011;31756;47.936;16.224;2023-03-04T16:20:14;129.90;;;50.80;;
46022;SDS011;31756;47.936;16.224;2023-03-04T16:22:42;125.60;;;47.70;;
46022;SDS011;31756;47.936;16.224;2023-03-04T16:25:11;128.93;;;49.17;;
46022;SDS011;31756;47.936;16.224;2023-03-04T16:27:39;124.43;;;48.20;;
46022;SDS011;31756;47.936;16.224;2023-03-04T16:30:06;125.93;;;49.37;;
46022;SDS011;31756;47.936;16.224;2023-03-04T16:32:37;121.30;;;49.03;;
46022;SDS011;31756;47.936;16.224;2023-03-04T16:35:03;121.93;;;47.77;;
46022;SDS011;31756;47.936;16.224;2023-03-04T16:37:29;123.40;;;47.93;;